sensor_id;sensor_type;location;lat;lon;timestamp;P1;durP1;ratioP1;P2;durP2;ratioP2
14094;SDS011;18096;48.142;16.290;2024-03-23T00:55:08;4.87;;;3.63;;
14094;SDS011;18096;48.142;16.290;2024-03-23T00:57:34;11.50;;;3.20;;
14094;SDS011;18096;48.142;16.290;2024-03-23T01:00:00;5.87;;;3.30;;
14094;SDS011;18096;48.142;16.290;2024-03-23T01:02:26;4.87;;;4.30;;
14094;SDS011;18096;48.142;16.290;2024-03-23T01:04:52;5.73;;;3.90;;
14094;SDS011;18096;48.142;16.290;2024-03-23T01:07:18;4.80;;;3.30;;
14094;SDS011;18096;48.142;16.290;2024-03-23T01:09:44;3.93;;;3.47;;
14094;SDS011;18096;48.142;16.290;2024-03-23T01:12:10;7.60;;;3.40;;
14094;SDS011;18096;48.142;16.290;2024-03-23T01:14:36;2.77;;;2.57;;
14094;SDS011;18096;48.142;16.290;2024-03-23T01:17:02;2.67;;;2.40;;
14094;SDS011;18096;48.142;16.290;2024-03-23T01:19:28;2.23;;;2.13;;
14094;SDS011;18096;48.142;16.290;2024-03-23T01:21:54;3.27;;;3.03;;
14094;SDS011;18096;48.142;16.290;2024-03-23T01:24:20;4.10;;;3.60;;
14094;SDS011;18096;48.142;16.290;2024-03-23T01:26:46;5.77;;;2.67;;
14094;SDS011;18096;48.142;16.290;2024-03-23T01:29:12;3.47;;;2.90;;
14094;SDS011;18096;48.142;16.290;2024-03-23T01:31:38;3.30;;;3.07;;
14094;SDS011;18096;48.142;16.290;2024-03-23T01:34:04;4.40;;;3.43;;
14094;SDS011;18096;48.142;16.290;2024-03-23T01:36:30;4.33;;;3.90;;
14094;SDS011;18096;48.142;16.290;2024-03-23T01:38:56;6.33;;;3.83;;
14094;SDS011;18096;48.142;16.290;2024-03-23T01:41:23;8.60;;;3.53;;
14094;SDS011;18096;48.142;16.290;2024-03-23T01:43:49;4.20;;;3.20;;
14094;SDS011;18096;48.142;16.290;2024-03-23T01:46:15;3.10;;;2.90;;
14094;SDS011;18096;48.142;16.290;2024-03-23T01:48:41;4.67;;;3.30;;
14094;SDS011;18096;48.142;16.290;2024-03-23T01:51:07;7.33;;;3.90;;
14094;SDS011;18096;48.142;16.290;2024-03-23T01:53:33;5.60;;;3.80;;
14094;SDS011;18096;48.142;16.290;2024-03-23T01:55:59;4.13;;;3.40;;
14094;SDS011;18096;48.142;16.290;2024-03-23T01:58:25;5.27;;;2.80;;
14094;SDS011;18096;48.142;16.290;2024-03-23T02:00:51;8.70;;;3.77;;
14094;SDS011;18096;48.142;16.290;2024-03-23T02:03:24;3.40;;;3.10;;
14094;SDS011;18096;48.142;16.290;2024-03-23T02:05:50;3.07;;;2.50;;
14094;SDS011;18096;48.142;16.290;2024-03-23T02:08:17;3.77;;;2.67;;
14094;SDS011;18096;48.142;16.290;2024-03-23T02:10:44;3.90;;;3.43;;
14094;SDS011;18096;48.142;16.290;2024-03-23T02:13:10;2.83;;;2.63;;
14094;SDS011;18096;48.142;16.290;2024-03-23T02:15:38;3.60;;;2.43;;
14094;SDS011;18096;48.142;16.290;2024-03-23T02:18:04;2.87;;;2.30;;
14094;SDS011;18096;48.142;16.290;2024-03-23T02:20:30;3.23;;;2.50;;
14094;SDS011;18096;48.142;16.290;2024-03-23T02:22:56;4.83;;;2.70;;
14094;SDS011;18096;48.142;16.290;2024-03-23T02:25:22;2.43;;;2.33;;
14094;SDS011;18096;48.142;16.290;2024-03-23T02:27:48;4.53;;;2.23;;
14094;SDS011;18096;48.142;16.290;2024-03-23T02:30:14;2.97;;;2.77;;
14094;SDS011;18096;48.142;16.290;2024-03-23T02:32:40;3.43;;;3.20;;
14094;SDS011;18096;48.142;16.290;2024-03-23T02:35:06;2.83;;;2.40;;
14094;SDS011;18096;48.142;16.290;2024-03-23T02:37:32;2.87;;;2.63;;
14094;SDS011;18096;48.142;16.290;2024-03-23T02:39:58;3.00;;;2.77;;
14094;SDS011;18096;48.142;16.290;2024-03-23T02:42:25;4.77;;;3.10;;
14094;SDS011;18096;48.142;16.290;2024-03-23T02:44:51;3.50;;;3.20;;
14094;SDS011;18096;48.142;16.290;2024-03-23T02:47:17;3.00;;;2.80;;
14094;SDS011;18096;48.142;16.290;2024-03-23T02:49:43;2.23;;;2.13;;
14094;SDS011;18096;48.142;16.290;2024-03-23T02:52:09;5.50;;;3.63;;
14094;SDS011;18096;48.142;16.290;2024-03-23T02:54:35;6.20;;;3.77;;
14094;SDS011;18096;48.142;16.290;2024-03-23T02:57:01;2.90;;;2.60;;
14094;SDS011;18096;48.142;16.290;2024-03-23T02:59:27;7.57;;;2.80;;
14094;SDS011;18096;48.142;16.290;2024-03-23T03:01:53;1.87;;;1.80;;
14094;SDS011;18096;48.142;16.290;2024-03-23T03:04:20;2.33;;;2.23;;
14094;SDS011;18096;48.142;16.290;2024-03-23T03:06:47;4.93;;;1.87;;
14094;SDS011;18096;48.142;16.290;2024-03-23T03:09:13;2.00;;;1.90;;
14094;SDS011;18096;48.142;16.290;2024-03-23T03:11:39;2.03;;;1.73;;
14094;SDS011;18096;48.142;16.290;2024-03-23T03:14:05;3.33;;;2.10;;
14094;SDS011;18096;48.142;16.290;2024-03-23T03:16:32;2.73;;;2.50;;
14094;SDS011;18096;48.142;16.290;2024-03-23T03:18:59;2.37;;;2.17;;
14094;SDS011;18096;48.142;16.290;2024-03-23T03:21:25;2.27;;;2.03;;
14094;SDS011;18096;48.142;16.290;2024-03-23T03:23:52;4.53;;;2.40;;
14094;SDS011;18096;48.142;16.290;2024-03-23T03:26:18;2.30;;;2.07;;
14094;SDS011;18096;48.142;16.290;2024-03-23T03:28:44;8.10;;;2.87;;
14094;SDS011;18096;48.142;16.290;2024-03-23T03:31:14;8.63;;;2.37;;
14094;SDS011;18096;48.142;16.290;2024-03-23T03:33:43;2.40;;;2.30;;
14094;SDS011;18096;48.142;16.290;2024-03-23T03:36:09;5.80;;;2.13;;
14094;SDS011;18096;48.142;16.290;2024-03-23T03:38:35;3.37;;;2.17;;
14094;SDS011;18096;48.142;16.290;2024-03-23T03:41:02;2.40;;;2.30;;
14094;SDS011;18096;48.142;16.290;2024-03-23T03:43:28;3.33;;;3.03;;
14094;SDS011;18096;48.142;16.290;2024-03-23T03:45:54;4.23;;;2.30;;
14094;SDS011;18096;48.142;16.290;2024-03-23T03:48:21;2.80;;;2.60;;
14094;SDS011;18096;48.142;16.290;2024-03-23T03:50:47;15.23;;;3.23;;
14094;SDS011;18096;48.142;16.290;2024-03-23T03:53:13;2.97;;;2.50;;
14094;SDS011;18096;48.142;16.290;2024-03-23T03:55:39;3.07;;;2.53;;
14094;SDS011;18096;48.142;16.290;2024-03-23T03:58:05;3.10;;;2.80;;
14094;SDS011;18096;48.142;16.290;2024-03-23T04:00:31;2.83;;;2.63;;
14094;SDS011;18096;48.142;16.290;2024-03-23T04:02:57;2.67;;;2.57;;
14094;SDS011;18096;48.142;16.290;2024-03-23T04:05:23;3.63;;;2.30;;
14094;SDS011;18096;48.142;16.290;2024-03-23T04:07:49;6.40;;;3.13;;
14094;SDS011;18096;48.142;16.290;2024-03-23T04:10:15;3.97;;;2.30;;
14094;SDS011;18096;48.142;16.290;2024-03-23T04:12:41;3.93;;;2.87;;
14094;SDS011;18096;48.142;16.290;2024-03-23T04:15:07;3.00;;;2.70;;
14094;SDS011;18096;48.142;16.290;2024-03-23T04:17:33;3.43;;;3.20;;
14094;SDS011;18096;48.142;16.290;2024-03-23T04:20:00;3.20;;;2.90;;
14094;SDS011;18096;48.142;16.290;2024-03-23T04:22:27;13.63;;;4.07;;
14094;SDS011;18096;48.142;16.290;2024-03-23T04:24:53;3.30;;;2.73;;
14094;SDS011;18096;48.142;16.290;2024-03-23T04:27:20;1.90;;;1.80;;
14094;SDS011;18096;48.142;16.290;2024-03-23T04:29:46;2.77;;;2.60;;
14094;SDS011;18096;48.142;16.290;2024-03-23T04:32:15;2.27;;;2.07;;
14094;SDS011;18096;48.142;16.290;2024-03-23T04:34:43;2.57;;;2.23;;
14094;SDS011;18096;48.142;16.290;2024-03-23T04:37:09;2.80;;;2.60;;
14094;SDS011;18096;48.142;16.290;2024-03-23T04:39:35;3.67;;;2.43;;
14094;SDS011;18096;48.142;16.290;2024-03-23T04:42:02;2.73;;;2.50;;
14094;SDS011;18096;48.142;16.290;2024-03-23T04:44:28;2.63;;;2.17;;
14094;SDS011;18096;48.142;16.290;2024-03-23T04:46:54;2.63;;;2.43;;
14094;SDS011;18096;48.142;16.290;2024-03-23T04:49:20;2.80;;;2.63;;
14094;SDS011;18096;48.142;16.290;2024-03-23T04:51:46;6.47;;;2.20;;
14094;SDS011;18096;48.142;16.290;2024-03-23T04:54:12;2.50;;;1.97;;
14094;SDS011;18096;48.142;16.290;2024-03-23T04:56:38;2.30;;;2.10;;
14094;SDS011;18096;48.142;16.290;2024-03-23T04:59:04;7.13;;;2.43;;
14094;SDS011;18096;48.142;16.290;2024-03-23T05:01:31;2.97;;;2.73;;
14094;SDS011;18096;48.142;16.290;2024-03-23T05:03:57;3.23;;;3.03;;
14094;SDS011;18096;48.142;16.290;2024-03-23T05:06:26;1.97;;;1.70;;
14094;SDS011;18096;48.142;16.290;2024-03-23T05:08:52;2.80;;;2.70;;
14094;SDS011;18096;48.142;16.290;2024-03-23T05:11:18;5.43;;;2.57;;
14094;SDS011;18096;48.142;16.290;2024-03-23T05:13:45;2.20;;;2.00;;
14094;SDS011;18096;48.142;16.290;2024-03-23T05:16:11;3.23;;;2.80;;
14094;SDS011;18096;48.142;16.290;2024-03-23T05:18:37;7.10;;;2.67;;
14094;SDS011;18096;48.142;16.290;2024-03-23T05:21:04;2.90;;;2.50;;
14094;SDS011;18096;48.142;16.290;2024-03-23T05:23:30;2.80;;;2.20;;
14094;SDS011;18096;48.142;16.290;2024-03-23T05:25:56;2.33;;;2.23;;
14094;SDS011;18096;48.142;16.290;2024-03-23T05:28:22;4.30;;;2.10;;
14094;SDS011;18096;48.142;16.290;2024-03-23T05:30:54;2.40;;;2.20;;
14094;SDS011;18096;48.142;16.290;2024-03-23T05:33:20;2.17;;;2.00;;
14094;SDS011;18096;48.142;16.290;2024-03-23T05:35:46;4.47;;;2.73;;
14094;SDS011;18096;48.142;16.290;2024-03-23T05:38:15;2.40;;;2.30;;
14094;SDS011;18096;48.142;16.290;2024-03-23T05:40:41;6.37;;;2.97;;
14094;SDS011;18096;48.142;16.290;2024-03-23T05:43:07;3.30;;;2.30;;
14094;SDS011;18096;48.142;16.290;2024-03-23T05:45:34;3.50;;;3.20;;
14094;SDS011;18096;48.142;16.290;2024-03-23T05:48:00;2.97;;;2.40;;
14094;SDS011;18096;48.142;16.290;2024-03-23T05:50:26;2.20;;;2.00;;
14094;SDS011;18096;48.142;16.290;2024-03-23T05:52:52;2.33;;;2.13;;
14094;SDS011;18096;48.142;16.290;2024-03-23T05:55:18;3.50;;;2.20;;
14094;SDS011;18096;48.142;16.290;2024-03-23T05:57:44;3.77;;;2.80;;
14094;SDS011;18096;48.142;16.290;2024-03-23T06:00:10;2.50;;;1.97;;
14094;SDS011;18096;48.142;16.290;2024-03-23T06:02:41;2.40;;;2.30;;
14094;SDS011;18096;48.142;16.290;2024-03-23T06:05:09;2.90;;;1.87;;
14094;SDS011;18096;48.142;16.290;2024-03-23T06:07:35;2.30;;;2.20;;
14094;SDS011;18096;48.142;16.290;2024-03-23T06:10:02;3.00;;;2.50;;
14094;SDS011;18096;48.142;16.290;2024-03-23T06:12:28;2.60;;;2.40;;
14094;SDS011;18096;48.142;16.290;2024-03-23T06:14:54;2.23;;;1.93;;
14094;SDS011;18096;48.142;16.290;2024-03-23T06:17:20;1.90;;;1.80;;
14094;SDS011;18096;48.142;16.290;2024-03-23T06:19:46;3.03;;;2.60;;
14094;SDS011;18096;48.142;16.290;2024-03-23T06:22:12;1.90;;;1.90;;
14094;SDS011;18096;48.142;16.290;2024-03-23T06:24:38;2.90;;;2.30;;
14094;SDS011;18096;48.142;16.290;2024-03-23T06:27:04;2.23;;;2.10;;
14094;SDS011;18096;48.142;16.290;2024-03-23T06:29:30;1.90;;;1.60;;
14094;SDS011;18096;48.142;16.290;2024-03-23T06:31:56;7.40;;;2.93;;
14094;SDS011;18096;48.142;16.290;2024-03-23T06:34:22;3.33;;;3.03;;
14094;SDS011;18096;48.142;16.290;2024-03-23T06:36:48;2.33;;;2.13;;
14094;SDS011;18096;48.142;16.290;2024-03-23T06:39:15;5.93;;;3.87;;
14094;SDS011;18096;48.142;16.290;2024-03-23T06:41:42;4.30;;;3.10;;
14094;SDS011;18096;48.142;16.290;2024-03-23T06:44:08;9.87;;;2.83;;
14094;SDS011;18096;48.142;16.290;2024-03-23T06:46:34;5.03;;;2.70;;
14094;SDS011;18096;48.142;16.290;2024-03-23T06:49:00;3.37;;;2.10;;
14094;SDS011;18096;48.142;16.290;2024-03-23T06:51:26;5.83;;;3.20;;
14094;SDS011;18096;48.142;16.290;2024-03-23T06:53:52;3.07;;;2.70;;
14094;SDS011;18096;48.142;16.290;2024-03-23T06:56:18;3.13;;;2.87;;
14094;SDS011;18096;48.142;16.290;2024-03-23T06:58:45;3.53;;;2.63;;
14094;SDS011;18096;48.142;16.290;2024-03-23T07:01:11;7.30;;;3.83;;
14094;SDS011;18096;48.142;16.290;2024-03-23T07:03:36;3.03;;;2.53;;
14094;SDS011;18096;48.142;16.290;2024-03-23T07:06:03;2.67;;;2.47;;
14094;SDS011;18096;48.142;16.290;2024-03-23T07:08:28;2.70;;;2.30;;
14094;SDS011;18096;48.142;16.290;2024-03-23T07:10:54;2.97;;;2.70;;
14094;SDS011;18096;48.142;16.290;2024-03-23T07:13:20;8.97;;;2.50;;
14094;SDS011;18096;48.142;16.290;2024-03-23T07:15:52;3.73;;;2.37;;
14094;SDS011;18096;48.142;16.290;2024-03-23T07:18:20;2.83;;;2.60;;
14094;SDS011;18096;48.142;16.290;2024-03-23T07:20:55;3.83;;;2.77;;
14094;SDS011;18096;48.142;16.290;2024-03-23T07:23:22;2.47;;;2.27;;
14094;SDS011;18096;48.142;16.290;2024-03-23T07:25:58;2.50;;;2.30;;
14094;SDS011;18096;48.142;16.290;2024-03-23T07:28:28;2.93;;;2.37;;
14094;SDS011;18096;48.142;16.290;2024-03-23T07:31:08;5.50;;;3.00;;
14094;SDS011;18096;48.142;16.290;2024-03-23T07:33:36;3.00;;;2.70;;
14094;SDS011;18096;48.142;16.290;2024-03-23T07:36:03;3.03;;;2.60;;
14094;SDS011;18096;48.142;16.290;2024-03-23T07:38:30;5.80;;;2.60;;
14094;SDS011;18096;48.142;16.290;2024-03-23T07:41:03;7.90;;;3.03;;
14094;SDS011;18096;48.142;16.290;2024-03-23T07:43:29;5.53;;;3.33;;
14094;SDS011;18096;48.142;16.290;2024-03-23T07:45:55;2.47;;;2.27;;
14094;SDS011;18096;48.142;16.290;2024-03-23T07:48:21;4.67;;;3.00;;
14094;SDS011;18096;48.142;16.290;2024-03-23T07:51:00;6.40;;;2.30;;
14094;SDS011;18096;48.142;16.290;2024-03-23T07:53:29;11.33;;;2.70;;
14094;SDS011;18096;48.142;16.290;2024-03-23T07:56:05;8.03;;;2.90;;
14094;SDS011;18096;48.142;16.290;2024-03-23T07:58:32;4.73;;;3.47;;
14094;SDS011;18096;48.142;16.290;2024-03-23T08:01:08;6.90;;;3.30;;
14094;SDS011;18096;48.142;16.290;2024-03-23T08:03:37;13.43;;;3.80;;
14094;SDS011;18096;48.142;16.290;2024-03-23T08:06:06;6.00;;;3.50;;
14094;SDS011;18096;48.142;16.290;2024-03-23T08:08:33;4.63;;;4.10;;
14094;SDS011;18096;48.142;16.290;2024-03-23T08:10:59;8.77;;;4.47;;
14094;SDS011;18096;48.142;16.290;2024-03-23T08:13:26;5.13;;;4.63;;
14094;SDS011;18096;48.142;16.290;2024-03-23T08:15:52;8.00;;;5.60;;
14094;SDS011;18096;48.142;16.290;2024-03-23T08:18:22;8.10;;;5.87;;
14094;SDS011;18096;48.142;16.290;2024-03-23T08:20:55;7.60;;;4.83;;
14094;SDS011;18096;48.142;16.290;2024-03-23T08:23:34;7.57;;;5.13;;
14094;SDS011;18096;48.142;16.290;2024-03-23T08:26:04;6.53;;;4.70;;
14094;SDS011;18096;48.142;16.290;2024-03-23T08:28:34;9.57;;;4.77;;
14094;SDS011;18096;48.142;16.290;2024-03-23T08:31:01;5.93;;;4.50;;
14094;SDS011;18096;48.142;16.290;2024-03-23T08:33:28;12.07;;;6.00;;
14094;SDS011;18096;48.142;16.290;2024-03-23T08:38:21;5.30;;;4.90;;
14094;SDS011;18096;48.142;16.290;2024-03-23T08:40:47;4.27;;;3.87;;
14094;SDS011;18096;48.142;16.290;2024-03-23T08:43:13;4.20;;;3.70;;
14094;SDS011;18096;48.142;16.290;2024-03-23T08:45:39;5.30;;;3.33;;
14094;SDS011;18096;48.142;16.290;2024-03-23T08:48:05;2.53;;;2.33;;
14094;SDS011;18096;48.142;16.290;2024-03-23T08:50:31;2.10;;;2.00;;
14094;SDS011;18096;48.142;16.290;2024-03-23T08:52:57;3.77;;;2.13;;
14094;SDS011;18096;48.142;16.290;2024-03-23T08:55:23;2.53;;;2.03;;
14094;SDS011;18096;48.142;16.290;2024-03-23T08:57:49;2.40;;;2.20;;
14094;SDS011;18096;48.142;16.290;2024-03-23T09:00:15;3.00;;;2.80;;
14094;SDS011;18096;48.142;16.290;2024-03-23T09:02:42;3.97;;;3.50;;
14094;SDS011;18096;48.142;16.290;2024-03-23T09:05:08;2.30;;;2.10;;
14094;SDS011;18096;48.142;16.290;2024-03-23T09:07:34;2.20;;;2.10;;
14094;SDS011;18096;48.142;16.290;2024-03-23T09:10:00;2.70;;;2.20;;
14094;SDS011;18096;48.142;16.290;2024-03-23T09:12:26;2.87;;;2.37;;
14094;SDS011;18096;48.142;16.290;2024-03-23T09:14:52;2.77;;;2.40;;
14094;SDS011;18096;48.142;16.290;2024-03-23T09:17:18;3.13;;;1.80;;
14094;SDS011;18096;48.142;16.290;2024-03-23T09:19:44;2.20;;;1.43;;
14094;SDS011;18096;48.142;16.290;2024-03-23T09:22:10;3.90;;;1.40;;
14094;SDS011;18096;48.142;16.290;2024-03-23T09:24:36;3.33;;;2.20;;
14094;SDS011;18096;48.142;16.290;2024-03-23T09:27:04;3.13;;;1.97;;
14094;SDS011;18096;48.142;16.290;2024-03-23T09:29:30;1.80;;;1.47;;
14094;SDS011;18096;48.142;16.290;2024-03-23T09:31:56;2.63;;;1.37;;
14094;SDS011;18096;48.142;16.290;2024-03-23T09:34:22;1.40;;;1.40;;
14094;SDS011;18096;48.142;16.290;2024-03-23T09:36:51;2.77;;;1.37;;
14094;SDS011;18096;48.142;16.290;2024-03-23T09:39:17;3.13;;;1.53;;
14094;SDS011;18096;48.142;16.290;2024-03-23T09:41:43;6.07;;;1.50;;
14094;SDS011;18096;48.142;16.290;2024-03-23T09:44:09;1.57;;;1.03;;
14094;SDS011;18096;48.142;16.290;2024-03-23T09:46:35;1.67;;;1.60;;
14094;SDS011;18096;48.142;16.290;2024-03-23T09:49:03;1.70;;;1.60;;
14094;SDS011;18096;48.142;16.290;2024-03-23T09:51:30;2.10;;;1.60;;
14094;SDS011;18096;48.142;16.290;2024-03-23T09:53:56;1.00;;;1.00;;
14094;SDS011;18096;48.142;16.290;2024-03-23T09:56:22;0.97;;;0.70;;
14094;SDS011;18096;48.142;16.290;2024-03-23T09:58:49;1.27;;;1.27;;
14094;SDS011;18096;48.142;16.290;2024-03-23T10:01:16;3.70;;;1.37;;
14094;SDS011;18096;48.142;16.290;2024-03-23T10:03:45;1.93;;;1.27;;
14094;SDS011;18096;48.142;16.290;2024-03-23T10:06:11;4.50;;;1.43;;
14094;SDS011;18096;48.142;16.290;2024-03-23T10:08:37;15.57;;;1.40;;
14094;SDS011;18096;48.142;16.290;2024-03-23T10:11:13;1.63;;;1.47;;
14094;SDS011;18096;48.142;16.290;2024-03-23T10:13:43;1.47;;;1.37;;
14094;SDS011;18096;48.142;16.290;2024-03-23T10:16:11;2.20;;;1.63;;
14094;SDS011;18096;48.142;16.290;2024-03-23T10:18:37;1.87;;;1.77;;
14094;SDS011;18096;48.142;16.290;2024-03-23T10:21:08;2.03;;;1.93;;
14094;SDS011;18096;48.142;16.290;2024-03-23T10:23:36;2.77;;;2.57;;
14094;SDS011;18096;48.142;16.290;2024-03-23T10:26:19;2.80;;;2.50;;
14094;SDS011;18096;48.142;16.290;2024-03-23T10:29:00;2.20;;;2.00;;
14094;SDS011;18096;48.142;16.290;2024-03-23T10:31:30;1.50;;;1.37;;
14094;SDS011;18096;48.142;16.290;2024-03-23T10:33:56;5.03;;;1.37;;
14094;SDS011;18096;48.142;16.290;2024-03-23T10:36:23;7.13;;;1.20;;
14094;SDS011;18096;48.142;16.290;2024-03-23T10:38:50;1.43;;;1.33;;
14094;SDS011;18096;48.142;16.290;2024-03-23T10:41:17;3.63;;;1.37;;
14094;SDS011;18096;48.142;16.290;2024-03-23T10:43:44;6.33;;;1.23;;
14094;SDS011;18096;48.142;16.290;2024-03-23T10:46:12;2.43;;;1.10;;
14094;SDS011;18096;48.142;16.290;2024-03-23T10:48:39;3.30;;;0.80;;
14094;SDS011;18096;48.142;16.290;2024-03-23T10:51:06;2.00;;;0.60;;
14094;SDS011;18096;48.142;16.290;2024-03-23T10:53:33;2.17;;;0.90;;
14094;SDS011;18096;48.142;16.290;2024-03-23T10:55:59;1.20;;;0.90;;
14094;SDS011;18096;48.142;16.290;2024-03-23T10:58:47;2.70;;;0.90;;
14094;SDS011;18096;48.142;16.290;2024-03-23T11:01:14;1.03;;;0.97;;
14094;SDS011;18096;48.142;16.290;2024-03-23T11:03:44;1.63;;;0.80;;
14094;SDS011;18096;48.142;16.290;2024-03-23T11:06:11;4.00;;;1.10;;
14094;SDS011;18096;48.142;16.290;2024-03-23T11:09:00;0.97;;;0.97;;
14094;SDS011;18096;48.142;16.290;2024-03-23T11:11:26;1.63;;;0.87;;
14094;SDS011;18096;48.142;16.290;2024-03-23T11:13:53;2.20;;;0.80;;
14094;SDS011;18096;48.142;16.290;2024-03-23T11:16:23;2.77;;;0.80;;
14094;SDS011;18096;48.142;16.290;2024-03-23T11:18:53;2.20;;;0.90;;
14094;SDS011;18096;48.142;16.290;2024-03-23T11:24:18;0.80;;;0.80;;
14094;SDS011;18096;48.142;16.290;2024-03-23T11:26:45;2.43;;;1.00;;
14094;SDS011;18096;48.142;16.290;2024-03-23T11:29:12;1.13;;;0.90;;
14094;SDS011;18096;48.142;16.290;2024-03-23T11:31:45;1.03;;;0.90;;
14094;SDS011;18096;48.142;16.290;2024-03-23T11:34:18;1.67;;;1.50;;
14094;SDS011;18096;48.142;16.290;2024-03-23T11:36:45;5.33;;;0.77;;
14094;SDS011;18096;48.142;16.290;2024-03-23T11:39:16;2.30;;;0.87;;
14094;SDS011;18096;48.142;16.290;2024-03-23T11:41:49;4.33;;;1.30;;
14094;SDS011;18096;48.142;16.290;2024-03-23T11:44:16;1.67;;;0.80;;
14094;SDS011;18096;48.142;16.290;2024-03-23T11:46:47;1.63;;;1.00;;
14094;SDS011;18096;48.142;16.290;2024-03-23T11:49:48;3.20;;;0.90;;
14094;SDS011;18096;48.142;16.290;2024-03-23T11:52:08;1.40;;;1.30;;
14094;SDS011;18096;48.142;16.290;2024-03-23T11:54:34;2.10;;;0.77;;
14094;SDS011;18096;48.142;16.290;2024-03-23T11:57:00;3.83;;;0.83;;
14094;SDS011;18096;48.142;16.290;2024-03-23T11:59:39;5.53;;;0.97;;
14094;SDS011;18096;48.142;16.290;2024-03-23T12:02:09;1.67;;;1.10;;
14094;SDS011;18096;48.142;16.290;2024-03-23T12:04:36;9.30;;;1.20;;
14094;SDS011;18096;48.142;16.290;2024-03-23T12:07:15;2.83;;;0.90;;
14094;SDS011;18096;48.142;16.290;2024-03-23T12:09:45;3.10;;;0.80;;
14094;SDS011;18096;48.142;16.290;2024-03-23T12:12:16;0.90;;;0.90;;
14094;SDS011;18096;48.142;16.290;2024-03-23T12:14:45;0.80;;;0.80;;
14094;SDS011;18096;48.142;16.290;2024-03-23T12:17:30;3.10;;;1.10;;
14094;SDS011;18096;48.142;16.290;2024-03-23T12:19:57;0.83;;;0.83;;
14094;SDS011;18096;48.142;16.290;2024-03-23T12:22:23;2.90;;;1.10;;
14094;SDS011;18096;48.142;16.290;2024-03-23T12:24:49;3.13;;;1.30;;
14094;SDS011;18096;48.142;16.290;2024-03-23T12:27:15;2.40;;;1.10;;
14094;SDS011;18096;48.142;16.290;2024-03-23T12:29:41;0.80;;;0.80;;
14094;SDS011;18096;48.142;16.290;2024-03-23T12:32:08;1.40;;;0.87;;
14094;SDS011;18096;48.142;16.290;2024-03-23T12:34:34;3.87;;;1.07;;
14094;SDS011;18096;48.142;16.290;2024-03-23T12:37:00;1.37;;;1.27;;
14094;SDS011;18096;48.142;16.290;2024-03-23T12:39:26;1.43;;;0.90;;
14094;SDS011;18096;48.142;16.290;2024-03-23T12:41:52;1.97;;;1.07;;
14094;SDS011;18096;48.142;16.290;2024-03-23T12:44:17;2.40;;;0.90;;
14094;SDS011;18096;48.142;16.290;2024-03-23T12:46:43;0.77;;;0.70;;
14094;SDS011;18096;48.142;16.290;2024-03-23T12:49:09;1.37;;;1.27;;
14094;SDS011;18096;48.142;16.290;2024-03-23T12:51:36;4.03;;;1.43;;
14094;SDS011;18096;48.142;16.290;2024-03-23T12:54:01;1.97;;;1.80;;
14094;SDS011;18096;48.142;16.290;2024-03-23T12:56:29;1.37;;;1.20;;
14094;SDS011;18096;48.142;16.290;2024-03-23T12:58:55;1.60;;;1.50;;
14094;SDS011;18096;48.142;16.290;2024-03-23T13:01:24;7.13;;;1.57;;
14094;SDS011;18096;48.142;16.290;2024-03-23T13:03:50;1.10;;;1.10;;
14094;SDS011;18096;48.142;16.290;2024-03-23T13:06:17;4.40;;;1.30;;
14094;SDS011;18096;48.142;16.290;2024-03-23T13:08:46;1.30;;;1.00;;
14094;SDS011;18096;48.142;16.290;2024-03-23T13:11:12;1.23;;;0.90;;
14094;SDS011;18096;48.142;16.290;2024-03-23T13:13:39;1.53;;;0.97;;
14094;SDS011;18096;48.142;16.290;2024-03-23T13:16:07;3.70;;;0.80;;
14094;SDS011;18096;48.142;16.290;2024-03-23T13:18:33;1.60;;;0.90;;
14094;SDS011;18096;48.142;16.290;2024-03-23T13:20:59;1.90;;;0.93;;
14094;SDS011;18096;48.142;16.290;2024-03-23T13:23:25;0.77;;;0.77;;
14094;SDS011;18096;48.142;16.290;2024-03-23T13:25:51;0.87;;;0.80;;
14094;SDS011;18096;48.142;16.290;2024-03-23T13:28:18;3.13;;;0.90;;
14094;SDS011;18096;48.142;16.290;2024-03-23T13:30:54;5.90;;;0.70;;
14094;SDS011;18096;48.142;16.290;2024-03-23T13:33:20;1.73;;;1.10;;
14094;SDS011;18096;48.142;16.290;2024-03-23T13:35:49;0.70;;;0.70;;
14094;SDS011;18096;48.142;16.290;2024-03-23T13:38:19;0.73;;;0.73;;
14094;SDS011;18096;48.142;16.290;2024-03-23T13:40:52;2.90;;;0.97;;
14094;SDS011;18096;48.142;16.290;2024-03-23T13:43:22;0.70;;;0.70;;
14094;SDS011;18096;48.142;16.290;2024-03-23T13:45:49;1.00;;;1.00;;
14094;SDS011;18096;48.142;16.290;2024-03-23T13:48:18;5.07;;;0.83;;
14094;SDS011;18096;48.142;16.290;2024-03-23T13:51:09;0.73;;;0.73;;
14094;SDS011;18096;48.142;16.290;2024-03-23T13:53:35;1.10;;;0.80;;
14094;SDS011;18096;48.142;16.290;2024-03-23T13:56:01;1.10;;;1.10;;
14094;SDS011;18096;48.142;16.290;2024-03-23T13:58:28;2.30;;;0.70;;
14094;SDS011;18096;48.142;16.290;2024-03-23T14:00:56;1.80;;;0.93;;
14094;SDS011;18096;48.142;16.290;2024-03-23T14:03:22;0.97;;;0.97;;
14094;SDS011;18096;48.142;16.290;2024-03-23T14:05:48;0.60;;;0.60;;
14094;SDS011;18096;48.142;16.290;2024-03-23T14:08:14;0.60;;;0.60;;
14094;SDS011;18096;48.142;16.290;2024-03-23T14:10:40;0.70;;;0.70;;
14094;SDS011;18096;48.142;16.290;2024-03-23T14:13:07;5.00;;;0.70;;
14094;SDS011;18096;48.142;16.290;2024-03-23T14:15:32;14.80;;;0.93;;
14094;SDS011;18096;48.142;16.290;2024-03-23T14:17:58;0.87;;;0.50;;
14094;SDS011;18096;48.142;16.290;2024-03-23T14:20:25;0.90;;;0.90;;
14094;SDS011;18096;48.142;16.290;2024-03-23T14:22:51;0.80;;;0.80;;
14094;SDS011;18096;48.142;16.290;2024-03-23T14:25:17;0.70;;;0.70;;
14094;SDS011;18096;48.142;16.290;2024-03-23T14:27:44;1.10;;;1.00;;
14094;SDS011;18096;48.142;16.290;2024-03-23T14:30:10;0.80;;;0.80;;
14094;SDS011;18096;48.142;16.290;2024-03-23T14:32:37;0.70;;;0.70;;
14094;SDS011;18096;48.142;16.290;2024-03-23T14:35:03;0.60;;;0.60;;
14094;SDS011;18096;48.142;16.290;2024-03-23T14:37:30;1.23;;;1.13;;
14094;SDS011;18096;48.142;16.290;2024-03-23T14:39:56;2.40;;;1.10;;
14094;SDS011;18096;48.142;16.290;2024-03-23T14:42:22;0.73;;;0.73;;
14094;SDS011;18096;48.142;16.290;2024-03-23T14:44:51;4.57;;;1.13;;
14094;SDS011;18096;48.142;16.290;2024-03-23T14:47:18;0.80;;;0.80;;
14094;SDS011;18096;48.142;16.290;2024-03-23T14:49:44;0.70;;;0.70;;
14094;SDS011;18096;48.142;16.290;2024-03-23T14:52:15;1.00;;;0.90;;
14094;SDS011;18096;48.142;16.290;2024-03-23T14:54:41;0.83;;;0.83;;
14094;SDS011;18096;48.142;16.290;2024-03-23T14:57:07;0.50;;;0.50;;
14094;SDS011;18096;48.142;16.290;2024-03-23T14:59:34;0.80;;;0.80;;
14094;SDS011;18096;48.142;16.290;2024-03-23T15:02:00;2.50;;;0.60;;
14094;SDS011;18096;48.142;16.290;2024-03-23T15:04:26;4.93;;;0.97;;
14094;SDS011;18096;48.142;16.290;2024-03-23T15:06:52;23.83;;;1.80;;
14094;SDS011;18096;48.142;16.290;2024-03-23T15:09:18;151.77;;;8.43;;
14094;SDS011;18096;48.142;16.290;2024-03-23T15:11:44;23.33;;;3.00;;
14094;SDS011;18096;48.142;16.290;2024-03-23T15:14:10;17.13;;;1.03;;
14094;SDS011;18096;48.142;16.290;2024-03-23T15:16:36;14.23;;;1.73;;
14094;SDS011;18096;48.142;16.290;2024-03-23T15:19:02;7.97;;;1.17;;
14094;SDS011;18096;48.142;16.290;2024-03-23T15:21:31;0.70;;;0.70;;
14094;SDS011;18096;48.142;16.290;2024-03-23T15:23:57;0.80;;;0.80;;
14094;SDS011;18096;48.142;16.290;2024-03-23T15:26:23;0.80;;;0.80;;
14094;SDS011;18096;48.142;16.290;2024-03-23T15:28:49;5.00;;;0.97;;
14094;SDS011;18096;48.142;16.290;2024-03-23T15:31:21;0.80;;;0.80;;
14094;SDS011;18096;48.142;16.290;2024-03-23T15:33:47;0.77;;;0.77;;